sensor_id;sensor_type;location;lat;lon;timestamp;pressure;altitude;pressure_sealevel;temperature;humidity
80335;BME280;69653;52.674;13.574;2023-04-25T00:00:13;99675.69;;;7.63;72.21
80335;BME280;69653;52.674;13.574;2023-04-25T00:02:39;99677.09;;;7.61;71.93
80335;BME280;69653;52.674;13.574;2023-04-25T00:05:05;99668.66;;;7.62;71.66
80335;BME280;69653;52.674;13.574;2023-04-25T00:07:30;99683.25;;;7.66;70.94
80335;BME280;69653;52.674;13.574;2023-04-25T00:09:57;99678.41;;;7.63;70.75
80335;BME280;69653;52.674;13.574;2023-04-25T00:12:22;99665.59;;;7.64;70.96
80335;BME280;69653;52.674;13.574;2023-04-25T00:14:48;99670.25;;;7.63;70.53
80335;BME280;69653;52.674;13.574;2023-04-25T00:17:15;99667.72;;;7.67;70.26
80335;BME280;69653;52.674;13.574;2023-04-25T00:19:41;99669.66;;;7.66;69.36
80335;BME280;69653;52.674;13.574;2023-04-25T00:22:07;99672.38;;;7.66;70.02
80335;BME280;69653;52.674;13.574;2023-04-25T00:24:32;99678.41;;;7.63;69.36
80335;BME280;69653;52.674;13.574;2023-04-25T00:26:58;99671.47;;;7.57;70.06
80335;BME280;69653;52.674;13.574;2023-04-25T00:29:23;99670.84;;;7.60;69.52
80335;BME280;69653;52.674;13.574;2023-04-25T00:31:48;99656.34;;;7.51;69.70
80335;BME280;69653;52.674;13.574;2023-04-25T00:34:14;99673.09;;;7.58;69.68
80335;BME280;69653;52.674;13.574;2023-04-25T00:36:39;99668.53;;;7.54;69.24
80335;BME280;69653;52.674;13.574;2023-04-25T00:39:04;99666.44;;;7.51;69.61
80335;BME280;69653;52.674;13.574;2023-04-25T00:41:30;99669.63;;;7.53;69.45
80335;BME280;69653;52.674;13.574;2023-04-25T00:43:56;99662.91;;;7.50;69.44
80335;BME280;69653;52.674;13.574;2023-04-25T00:46:21;99660.97;;;7.51;69.49
80335;BME280;69653;52.674;13.574;2023-04-25T00:48:47;99659.56;;;7.53;69.00
80335;BME280;69653;52.674;13.574;2023-04-25T00:51:16;99661.78;;;7.51;69.34
80335;BME280;69653;52.674;13.574;2023-04-25T00:53:44;99656.66;;;7.50;69.24
80335;BME280;69653;52.674;13.574;2023-04-25T00:56:10;99666.44;;;7.51;69.20
80335;BME280;69653;52.674;13.574;2023-04-25T00:58:36;99664.50;;;7.51;68.66
80335;BME280;69653;52.674;13.574;2023-04-25T01:01:02;99657.16;;;7.52;68.71
80335;BME280;69653;52.674;13.574;2023-04-25T01:03:27;99655.13;;;7.57;68.19
80335;BME280;69653;52.674;13.574;2023-04-25T01:05:54;99652.13;;;7.59;68.42
80335;BME280;69653;52.674;13.574;2023-04-25T01:08:21;99653.91;;;7.63;68.53
80335;BME280;69653;52.674;13.574;2023-04-25T01:10:48;99656.25;;;7.70;67.89
80335;BME280;69653;52.674;13.574;2023-04-25T01:13:14;99645.16;;;7.66;67.71
80335;BME280;69653;52.674;13.574;2023-04-25T01:15:39;99653.53;;;7.70;67.36
80335;BME280;69653;52.674;13.574;2023-04-25T01:18:05;99652.19;;;7.67;67.72
80335;BME280;69653;52.674;13.574;2023-04-25T01:20:32;99652.72;;;7.69;67.47
80335;BME280;69653;52.674;13.574;2023-04-25T01:22:58;99656.75;;;7.72;67.49
80335;BME280;69653;52.674;13.574;2023-04-25T01:25:24;99647.88;;;7.66;67.46
80335;BME280;69653;52.674;13.574;2023-04-25T01:27:49;99651.00;;;7.60;67.93
80335;BME280;69653;52.674;13.574;2023-04-25T01:30:15;99654.72;;;7.64;67.86
80335;BME280;69653;52.674;13.574;2023-04-25T01:32:41;99654.31;;;7.57;67.38
80335;BME280;69653;52.674;13.574;2023-04-25T01:35:09;99655.94;;;7.58;67.51
80335;BME280;69653;52.674;13.574;2023-04-25T01:37:39;99651.13;;;7.55;67.97
80335;BME280;69653;52.674;13.574;2023-04-25T01:40:06;99657.56;;;7.59;67.80
80335;BME280;69653;52.674;13.574;2023-04-25T01:42:33;99656.25;;;7.56;67.34
80335;BME280;69653;52.674;13.574;2023-04-25T01:44:59;99651.50;;;7.48;67.71
80335;BME280;69653;52.674;13.574;2023-04-25T01:47:25;99649.50;;;7.54;67.51
80335;BME280;69653;52.674;13.574;2023-04-25T01:49:50;99651.41;;;7.53;67.65
80335;BME280;69653;52.674;13.574;2023-04-25T01:52:15;99644.06;;;7.54;67.71
80335;BME280;69653;52.674;13.574;2023-04-25T01:54:41;99637.91;;;7.48;67.91
80335;BME280;69653;52.674;13.574;2023-04-25T01:57:09;99662.19;;;7.58;68.18
80335;BME280;69653;52.674;13.574;2023-04-25T01:59:35;99650.78;;;7.56;67.41
80335;BME280;69653;52.674;13.574;2023-04-25T02:02:00;99663.28;;;7.57;67.58
80335;BME280;69653;52.674;13.574;2023-04-25T02:04:29;99666.31;;;7.56;67.89
80335;BME280;69653;52.674;13.574;2023-04-25T02:06:54;99669.22;;;7.59;67.48
80335;BME280;69653;52.674;13.574;2023-04-25T02:09:19;99661.19;;;7.54;67.48
80335;BME280;69653;52.674;13.574;2023-04-25T02:11:45;99670.84;;;7.60;67.50
80335;BME280;69653;52.674;13.574;2023-04-25T02:14:10;99666.63;;;7.54;67.74
80335;BME280;69653;52.674;13.574;2023-04-25T02:16:35;99672.56;;;7.56;67.68
80335;BME280;69653;52.674;13.574;2023-04-25T02:19:01;99666.00;;;7.57;67.45
80335;BME280;69653;52.674;13.574;2023-04-25T02:21:26;99670.66;;;7.57;67.54
80335;BME280;69653;52.674;13.574;2023-04-25T02:23:52;99663.59;;;7.56;67.61
80335;BME280;69653;52.674;13.574;2023-04-25T02:26:17;99673.69;;;7.55;67.74
80335;BME280;69653;52.674;13.574;2023-04-25T02:28:43;99673.16;;;7.53;67.50
80335;BME280;69653;52.674;13.574;2023-04-25T02:31:08;99672.69;;;7.51;67.72
80335;BME280;69653;52.674;13.574;2023-04-25T02:33:33;99670.53;;;7.48;68.13
80335;BME280;69653;52.674;13.574;2023-04-25T02:35:59;99661.78;;;7.51;68.17
80335;BME280;69653;52.674;13.574;2023-04-25T02:38:24;99660.78;;;7.47;67.32
80335;BME280;69653;52.674;13.574;2023-04-25T02:40:50;99664.91;;;7.45;68.04
80335;BME280;69653;52.674;13.574;2023-04-25T02:43:15;99663.72;;;7.51;67.41
80335;BME280;69653;52.674;13.574;2023-04-25T02:45:41;99669.44;;;7.49;68.21
80335;BME280;69653;52.674;13.574;2023-04-25T02:48:06;99667.53;;;7.50;68.32
80335;BME280;69653;52.674;13.574;2023-04-25T02:50:31;99663.59;;;7.42;68.07
80335;BME280;69653;52.674;13.574;2023-04-25T02:52:57;99655.84;;;7.36;67.79
80335;BME280;69653;52.674;13.574;2023-04-25T02:55:22;99667.41;;;7.41;68.02
80335;BME280;69653;52.674;13.574;2023-04-25T02:57:48;99666.50;;;7.46;67.93
80335;BME280;69653;52.674;13.574;2023-04-25T03:00:13;99667.81;;;7.48;68.00
80335;BME280;69653;52.674;13.574;2023-04-25T03:02:39;99660.88;;;7.42;68.04
80335;BME280;69653;52.674;13.574;2023-04-25T03:05:05;99665.22;;;7.43;68.30
80335;BME280;69653;52.674;13.574;2023-04-25T03:07:31;99667.63;;;7.45;68.18
80335;BME280;69653;52.674;13.574;2023-04-25T03:09:56;99673.66;;;7.42;68.19
80335;BME280;69653;52.674;13.574;2023-04-25T03:12:22;99662.91;;;7.37;68.08
80335;BME280;69653;52.674;13.574;2023-04-25T03:14:47;99665.69;;;7.45;68.15
80335;BME280;69653;52.674;13.574;2023-04-25T03:17:12;99666.84;;;7.44;68.37
80335;BME280;69653;52.674;13.574;2023-04-25T03:19:37;99668.75;;;7.44;68.65
80335;BME280;69653;52.674;13.574;2023-04-25T03:22:03;99664.13;;;7.44;68.31
80335;BME280;69653;52.674;13.574;2023-04-25T03:24:28;99655.75;;;7.41;68.17
80335;BME280;69653;52.674;13.574;2023-04-25T03:26:53;99676.59;;;7.45;68.95
80335;BME280;69653;52.674;13.574;2023-04-25T03:29:19;99668.53;;;7.40;68.55
80335;BME280;69653;52.674;13.574;2023-04-25T03:31:49;99676.09;;;7.43;68.56
80335;BME280;69653;52.674;13.574;2023-04-25T03:34:14;99672.28;;;7.44;68.60
80335;BME280;69653;52.674;13.574;2023-04-25T03:36:40;99667.63;;;7.45;68.56
80335;BME280;69653;52.674;13.574;2023-04-25T03:39:05;99672.84;;;7.41;68.55
80335;BME280;69653;52.674;13.574;2023-04-25T03:41:31;99673.06;;;7.45;68.69
80335;BME280;69653;52.674;13.574;2023-04-25T03:43:56;99658.97;;;7.43;68.71
80335;BME280;69653;52.674;13.574;2023-04-25T03:46:21;99666.03;;;7.44;68.74
80335;BME280;69653;52.674;13.574;2023-04-25T03:48:47;99671.53;;;7.39;68.80
80335;BME280;69653;52.674;13.574;2023-04-25T03:51:12;99669.63;;;7.39;69.35
80335;BME280;69653;52.674;13.574;2023-04-25T03:53:38;99679.31;;;7.45;69.31
80335;BME280;69653;52.674;13.574;2023-04-25T03:56:03;99680.44;;;7.44;69.23
80335;BME280;69653;52.674;13.574;2023-04-25T03:58:28;99671.75;;;7.42;69.21
80335;BME280;69653;52.674;13.574;2023-04-25T04:00:54;99691.09;;;7.41;69.00
80335;BME280;69653;52.674;13.574;2023-04-25T04:03:19;99683.94;;;7.45;69.00
80335;BME280;69653;52.674;13.574;2023-04-25T04:05:45;99686.84;;;7.48;69.10
80335;BME280;69653;52.674;13.574;2023-04-25T04:08:11;99695.00;;;7.48;68.89
80335;BME280;69653;52.674;13.574;2023-04-25T04:10:37;99684.53;;;7.42;69.24
80335;BME280;69653;52.674;13.574;2023-04-25T04:13:02;99690.78;;;7.42;69.23
80335;BME280;69653;52.674;13.574;2023-04-25T04:15:28;99696.44;;;7.46;69.02
80335;BME280;69653;52.674;13.574;2023-04-25T04:17:53;99698.13;;;7.42;69.31
80335;BME280;69653;52.674;13.574;2023-04-25T04:20:19;99696.56;;;7.41;69.33
80335;BME280;69653;52.674;13.574;2023-04-25T04:22:44;99705.41;;;7.46;68.81
80335;BME280;69653;52.674;13.574;2023-04-25T04:25:10;99704.47;;;7.37;69.69
80335;BME280;69653;52.674;13.574;2023-04-25T04:27:37;99704.72;;;7.41;69.58
80335;BME280;69653;52.674;13.574;2023-04-25T04:30:03;99713.06;;;7.44;69.51
80335;BME280;69653;52.674;13.574;2023-04-25T04:32:28;99705.91;;;7.48;68.90
80335;BME280;69653;52.674;13.574;2023-04-25T04:34:55;99703.69;;;7.50;68.92
80335;BME280;69653;52.674;13.574;2023-04-25T04:37:20;99709.53;;;7.44;68.51
80335;BME280;69653;52.674;13.574;2023-04-25T04:39:47;99703.41;;;7.52;68.97
80335;BME280;69653;52.674;13.574;2023-04-25T04:42:12;99708.03;;;7.51;68.52
80335;BME280;69653;52.674;13.574;2023-04-25T04:44:38;99701.59;;;7.47;68.40
80335;BME280;69653;52.674;13.574;2023-04-25T04:47:04;99713.38;;;7.56;69.43
80335;BME280;69653;52.674;13.574;2023-04-25T04:49:31;99720.13;;;7.59;69.06
80335;BME280;69653;52.674;13.574;2023-04-25T04:51:57;99709.53;;;7.57;68.41
80335;BME280;69653;52.674;13.574;2023-04-25T04:54:22;99715.19;;;7.61;69.02
80335;BME280;69653;52.674;13.574;2023-04-25T04:56:47;99711.66;;;7.60;68.66
80335;BME280;69653;52.674;13.574;2023-04-25T04:59:13;99717.09;;;7.60;69.00
80335;BME280;69653;52.674;13.574;2023-04-25T05:01:38;99711.38;;;7.62;68.58
80335;BME280;69653;52.674;13.574;2023-04-25T05:04:03;99718.63;;;7.66;68.76
80335;BME280;69653;52.674;13.574;2023-04-25T05:06:30;99718.63;;;7.66;68.54
80335;BME280;69653;52.674;13.574;2023-04-25T05:08:56;99714.50;;;7.69;68.51
80335;BME280;69653;52.674;13.574;2023-04-25T05:11:23;99714.78;;;7.67;68.68
80335;BME280;69653;52.674;13.574;2023-04-25T05:13:51;99722.44;;;7.65;69.00
80335;BME280;69653;52.674;13.574;2023-04-25T05:16:16;99703.91;;;7.54;68.70
80335;BME280;69653;52.674;13.574;2023-04-25T05:18:41;99718.53;;;7.58;69.06
80335;BME280;69653;52.674;13.574;2023-04-25T05:21:07;99720.63;;;7.61;68.68
80335;BME280;69653;52.674;13.574;2023-04-25T05:23:32;99720.72;;;7.56;68.62
80335;BME280;69653;52.674;13.574;2023-04-25T05:25:58;99723.88;;;7.63;68.77
80335;BME280;69653;52.674;13.574;2023-04-25T05:28:23;99719.00;;;7.60;68.86
80335;BME280;69653;52.674;13.574;2023-04-25T05:30:49;99728.09;;;7.69;68.53
80335;BME280;69653;52.674;13.574;2023-04-25T05:33:14;99727.78;;;7.70;68.65
80335;BME280;69653;52.674;13.574;2023-04-25T05:35:40;99722.84;;;7.72;68.77
80335;BME280;69653;52.674;13.574;2023-04-25T05:38:05;99734.16;;;7.79;68.81
80335;BME280;69653;52.674;13.574;2023-04-25T05:40:31;99728.31;;;7.72;68.65
80335;BME280;69653;52.674;13.574;2023-04-25T05:42:56;99719.41;;;7.67;68.44
80335;BME280;69653;52.674;13.574;2023-04-25T05:45:22;99732.72;;;7.68;69.00
80335;BME280;69653;52.674;13.574;2023-04-25T05:47:47;99739.19;;;7.72;68.94
80335;BME280;69653;52.674;13.574;2023-04-25T05:50:12;99741.81;;;7.77;68.89
80335;BME280;69653;52.674;13.574;2023-04-25T05:52:38;99744.41;;;7.82;68.60
80335;BME280;69653;52.674;13.574;2023-04-25T05:55:04;99741.38;;;7.70;68.72
80335;BME280;69653;52.674;13.574;2023-04-25T05:57:29;99740.19;;;7.76;68.85
80335;BME280;69653;52.674;13.574;2023-04-25T05:59:54;99739.19;;;7.72;68.88
80335;BME280;69653;52.674;13.574;2023-04-25T06:02:20;99751.78;;;7.68;69.70
80335;BME280;69653;52.674;13.574;2023-04-25T06:04:47;99748.44;;;7.71;69.13
80335;BME280;69653;52.674;13.574;2023-04-25T06:07:12;99745.94;;;7.61;69.18
80335;BME280;69653;52.674;13.574;2023-04-25T06:09:38;99754.22;;;7.70;69.53
80335;BME280;69653;52.674;13.574;2023-04-25T06:12:05;99755.72;;;7.76;69.41
80335;BME280;69653;52.674;13.574;2023-04-25T06:14:30;99753.19;;;7.79;69.32
80335;BME280;69653;52.674;13.574;2023-04-25T06:16:56;99762.88;;;7.86;69.30
80335;BME280;69653;52.674;13.574;2023-04-25T06:19:21;99760.66;;;7.88;69.42
80335;BME280;69653;52.674;13.574;2023-04-25T06:21:46;99756.72;;;7.94;68.82
80335;BME280;69653;52.674;13.574;2023-04-25T06:24:12;99765.38;;;7.82;69.04
80335;BME280;69653;52.674;13.574;2023-04-25T06:26:37;99752.19;;;7.75;68.96
80335;BME280;69653;52.674;13.574;2023-04-25T06:29:02;99758.63;;;7.79;69.73
80335;BME280;69653;52.674;13.574;2023-04-25T06:31:28;99762.09;;;7.85;69.19
80335;BME280;69653;52.674;13.574;2023-04-25T06:33:58;99765.19;;;7.78;69.68
80335;BME280;69653;52.674;13.574;2023-04-25T06:36:23;99761.06;;;7.81;69.91
80335;BME280;69653;52.674;13.574;2023-04-25T06:38:51;99758.44;;;7.76;69.41
80335;BME280;69653;52.674;13.574;2023-04-25T06:41:16;99770.03;;;7.82;69.28
80335;BME280;69653;52.674;13.574;2023-04-25T06:43:42;99758.16;;;7.77;70.06
80335;BME280;69653;52.674;13.574;2023-04-25T06:46:07;99763.38;;;7.74;71.28
80335;BME280;69653;52.674;13.574;2023-04-25T06:48:32;99767.00;;;7.69;71.12
80335;BME280;69653;52.674;13.574;2023-04-25T06:50:58;99759.75;;;7.78;70.92
80335;BME280;69653;52.674;13.574;2023-04-25T06:53:23;99765.38;;;7.82;71.13
80335;BME280;69653;52.674;13.574;2023-04-25T06:55:48;99755.22;;;7.88;70.51
80335;BME280;69653;52.674;13.574;2023-04-25T06:58:14;99763.78;;;7.95;70.30
80335;BME280;69653;52.674;13.574;2023-04-25T07:00:39;99761.75;;;8.00;70.43
80335;BME280;69653;52.674;13.574;2023-04-25T07:03:04;99765.50;;;8.04;70.73
80335;BME280;69653;52.674;13.574;2023-04-25T07:05:30;99768.41;;;7.94;70.33
80335;BME280;69653;52.674;13.574;2023-04-25T07:07:55;99756.31;;;7.87;70.53
80335;BME280;69653;52.674;13.574;2023-04-25T07:10:20;99768.22;;;7.91;70.65
80335;BME280;69653;52.674;13.574;2023-04-25T07:12:46;99774.28;;;7.88;71.38
80335;BME280;69653;52.674;13.574;2023-04-25T07:15:11;99784.34;;;7.87;71.06
80335;BME280;69653;52.674;13.574;2023-04-25T07:17:37;99773.19;;;7.89;70.81
80335;BME280;69653;52.674;13.574;2023-04-25T07:20:04;99778.31;;;8.04;70.88
80335;BME280;69653;52.674;13.574;2023-04-25T07:22:29;99781.44;;;8.11;70.36
80335;BME280;69653;52.674;13.574;2023-04-25T07:24:55;99783.44;;;8.19;69.95
80335;BME280;69653;52.674;13.574;2023-04-25T07:27:20;99792.81;;;8.26;69.12
80335;BME280;69653;52.674;13.574;2023-04-25T07:29:46;99786.00;;;8.29;69.63
80335;BME280;69653;52.674;13.574;2023-04-25T07:32:11;99794.56;;;8.36;69.32
80335;BME280;69653;52.674;13.574;2023-04-25T07:34:38;99800.69;;;8.28;69.36
80335;BME280;69653;52.674;13.574;2023-04-25T07:37:04;99796.47;;;8.22;69.42
80335;BME280;69653;52.674;13.574;2023-04-25T07:39:29;99807.56;;;8.25;69.10
80335;BME280;69653;52.674;13.574;2023-04-25T07:41:55;99807.78;;;8.29;69.06
80335;BME280;69653;52.674;13.574;2023-04-25T07:44:21;99810.50;;;8.29;68.98
80335;BME280;69653;52.674;13.574;2023-04-25T07:46:46;99808.47;;;8.35;68.73
80335;BME280;69653;52.674;13.574;2023-04-25T07:49:12;99811.81;;;8.32;68.17
80335;BME280;69653;52.674;13.574;2023-04-25T07:51:37;99813.50;;;8.41;67.84
80335;BME280;69653;52.674;13.574;2023-04-25T07:54:02;99812.22;;;8.39;68.31
80335;BME280;69653;52.674;13.574;2023-04-25T07:56:28;99820.09;;;8.40;67.54
80335;BME280;69653;52.674;13.574;2023-04-25T07:58:53;99828.44;;;8.30;68.48
80335;BME280;69653;52.674;13.574;2023-04-25T08:01:18;99820.78;;;8.32;68.20
80335;BME280;69653;52.674;13.574;2023-04-25T08:03:46;99829.38;;;8.39;67.97
80335;BME280;69653;52.674;13.574;2023-04-25T08:06:11;99830.69;;;8.55;67.02
80335;BME280;69653;52.674;13.574;2023-04-25T08:08:37;99836.28;;;8.72;66.31
80335;BME280;69653;52.674;13.574;2023-04-25T08:11:02;99840.97;;;8.94;65.51
80335;BME280;69653;52.674;13.574;2023-04-25T08:13:28;99840.56;;;9.01;65.20
80335;BME280;69653;52.674;13.574;2023-04-25T08:15:53;99845.16;;;9.14;64.84
80335;BME280;69653;52.674;13.574;2023-04-25T08:18:19;99849.53;;;9.15;64.23
80335;BME280;69653;52.674;13.574;2023-04-25T08:20:45;99854.97;;;9.15;64.27
80335;BME280;69653;52.674;13.574;2023-04-25T08:23:10;99852.34;;;9.10;63.60
80335;BME280;69653;52.674;13.574;2023-04-25T08:25:35;99861.53;;;9.14;62.59
80335;BME280;69653;52.674;13.574;2023-04-25T08:28:01;99850.19;;;9.20;62.17
80335;BME280;69653;52.674;13.574;2023-04-25T08:30:28;99854.00;;;9.33;61.87
80335;BME280;69653;52.674;13.574;2023-04-25T08:32:53;99860.69;;;9.49;61.05
80335;BME280;69653;52.674;13.574;2023-04-25T08:35:19;99859.06;;;9.70;60.40
80335;BME280;69653;52.674;13.574;2023-04-25T08:37:45;99863.00;;;9.87;59.25
80335;BME280;69653;52.674;13.574;2023-04-25T08:40:12;99871.16;;;10.09;58.97
80335;BME280;69653;52.674;13.574;2023-04-25T08:42:41;99864.06;;;10.30;56.17
80335;BME280;69653;52.674;13.574;2023-04-25T08:45:08;99874.94;;;10.61;53.86
80335;BME280;69653;52.674;13.574;2023-04-25T08:47:33;99883.88;;;10.92;52.93
80335;BME280;69653;52.674;13.574;2023-04-25T08:50:02;99867.16;;;11.62;51.59
80335;BME280;69653;52.674;13.574;2023-04-25T08:52:31;99872.56;;;12.43;48.04
80335;BME280;69653;52.674;13.574;2023-04-25T08:54:57;99869.28;;;12.88;45.71
80335;BME280;69653;52.674;13.574;2023-04-25T08:57:24;99878.00;;;12.90;44.59
80335;BME280;69653;52.674;13.574;2023-04-25T08:59:51;99879.59;;;13.41;42.27
80335;BME280;69653;52.674;13.574;2023-04-25T09:02:18;99877.97;;;13.60;40.53
80335;BME280;69653;52.674;13.574;2023-04-25T09:04:45;99892.13;;;13.50;39.38
80335;BME280;69653;52.674;13.574;2023-04-25T09:07:11;99894.63;;;14.09;38.43
80335;BME280;69653;52.674;13.574;2023-04-25T09:09:36;99891.25;;;15.09;36.45
80335;BME280;69653;52.674;13.574;2023-04-25T09:12:02;99891.13;;;15.70;34.52
80335;BME280;69653;52.674;13.574;2023-04-25T09:14:27;99890.03;;;15.46;35.42
80335;BME280;69653;52.674;13.574;2023-04-25T09:21:53;99907.25;;;13.89;36.95
80335;BME280;69653;52.674;13.574;2023-04-25T09:24:38;99913.06;;;13.76;37.21
80335;BME280;69653;52.674;13.574;2023-04-25T09:27:07;99914.41;;;13.70;37.43
80335;BME280;69653;52.674;13.574;2023-04-25T09:29:35;99915.53;;;13.48;37.69
80335;BME280;69653;52.674;13.574;2023-04-25T09:34:43;99921.78;;;13.16;37.85
80335;BME280;69653;52.674;13.574;2023-04-25T09:37:09;99926.94;;;13.17;38.69
80335;BME280;69653;52.674;13.574;2023-04-25T09:39:36;99905.00;;;12.79;38.86
80335;BME280;69653;52.674;13.574;2023-04-25T09:42:03;99915.16;;;13.17;39.52
80335;BME280;69653;52.674;13.574;2023-04-25T09:44:28;99917.22;;;13.20;39.21
80335;BME280;69653;52.674;13.574;2023-04-25T09:46:54;99921.94;;;12.81;38.98
80335;BME280;69653;52.674;13.574;2023-04-25T09:49:20;99921.78;;;13.16;38.27
80335;BME280;69653;52.674;13.574;2023-04-25T09:51:58;99921.06;;;12.98;38.55
80335;BME280;69653;52.674;13.574;2023-04-25T09:54:25;99922.06;;;11.92;40.07
80335;BME280;69653;52.674;13.574;2023-04-25T09:56:53;99934.31;;;11.51;41.11
80335;BME280;69653;52.674;13.574;2023-04-25T09:59:20;99934.16;;;11.48;41.47
80335;BME280;69653;52.674;13.574;2023-04-25T10:01:49;99934.78;;;11.62;40.81
80335;BME280;69653;52.674;13.574;2023-04-25T10:04:20;99931.75;;;11.89;40.62
80335;BME280;69653;52.674;13.574;2023-04-25T10:06:48;99930.53;;;12.33;39.19
80335;BME280;69653;52.674;13.574;2023-04-25T10:09:15;99938.72;;;12.50;38.44
80335;BME280;69653;52.674;13.574;2023-04-25T10:11:40;99939.59;;;12.63;36.05
80335;BME280;69653;52.674;13.574;2023-04-25T10:14:06;99941.59;;;12.54;35.53
80335;BME280;69653;52.674;13.574;2023-04-25T10:16:32;99943.53;;;12.53;35.81
80335;BME280;69653;52.674;13.574;2023-04-25T10:18:57;99935.72;;;13.02;34.88
80335;BME280;69653;52.674;13.574;2023-04-25T10:21:24;99938.75;;;12.80;35.79
80335;BME280;69653;52.674;13.574;2023-04-25T10:23:52;99943.19;;;12.93;36.25
80335;BME280;69653;52.674;13.574;2023-04-25T10:26:18;99946.84;;;12.68;35.62
80335;BME280;69653;52.674;13.574;2023-04-25T10:29:00;99935.63;;;12.90;35.56
80335;BME280;69653;52.674;13.574;2023-04-25T10:31:27;99950.00;;;12.87;34.65
80335;BME280;69653;52.674;13.574;2023-04-25T10:33:53;99927.13;;;12.74;33.98
80335;BME280;69653;52.674;13.574;2023-04-25T10:36:21;99942.81;;;12.27;34.28
80335;BME280;69653;52.674;13.574;2023-04-25T10:38:48;99945.09;;;11.99;34.73
80335;BME280;69653;52.674;13.574;2023-04-25T10:41:17;99939.63;;;12.54;34.26
80335;BME280;69653;52.674;13.574;2023-04-25T10:43:44;99940.81;;;12.83;33.86
80335;BME280;69653;52.674;13.574;2023-04-25T10:48:55;99939.88;;;13.08;33.97
80335;BME280;69653;52.674;13.574;2023-04-25T10:51:23;99938.50;;;13.23;33.41
80335;BME280;69653;52.674;13.574;2023-04-25T10:56:22;99942.38;;;12.54;34.57
80335;BME280;69653;52.674;13.574;2023-04-25T10:58:48;99947.69;;;12.13;34.99
80335;BME280;69653;52.674;13.574;2023-04-25T11:01:15;99951.47;;;12.38;35.19
80335;BME280;69653;52.674;13.574;2023-04-25T11:03:44;99955.25;;;12.62;34.34
80335;BME280;69653;52.674;13.574;2023-04-25T11:06:29;99966.44;;;12.57;35.05
80335;BME280;69653;52.674;13.574;2023-04-25T11:08:57;99966.59;;;12.52;35.82
80335;BME280;69653;52.674;13.574;2023-04-25T11:11:22;99975.72;;;12.19;35.35
80335;BME280;69653;52.674;13.574;2023-04-25T11:13:49;99974.44;;;11.56;36.63
80335;BME280;69653;52.674;13.574;2023-04-25T11:16:16;99977.44;;;11.20;37.27
80335;BME280;69653;52.674;13.574;2023-04-25T11:18:42;99985.88;;;10.93;37.48
80335;BME280;69653;52.674;13.574;2023-04-25T11:21:08;99994.09;;;10.93;38.19
80335;BME280;69653;52.674;13.574;2023-04-25T11:23:34;99995.72;;;10.94;37.74
80335;BME280;69653;52.674;13.574;2023-04-25T11:25:59;100012.72;;;10.91;37.25
80335;BME280;69653;52.674;13.574;2023-04-25T11:28:26;100005.00;;;10.84;37.68
80335;BME280;69653;52.674;13.574;2023-04-25T11:30:52;100009.53;;;10.89;37.66
80335;BME280;69653;52.674;13.574;2023-04-25T11:33:17;100022.34;;;10.80;36.97
80335;BME280;69653;52.674;13.574;2023-04-25T11:35:43;100015.06;;;10.66;36.08
80335;BME280;69653;52.674;13.574;2023-04-25T11:38:09;100018.91;;;10.65;36.27
80335;BME280;69653;52.674;13.574;2023-04-25T11:40:37;100012.97;;;10.72;35.50
80335;BME280;69653;52.674;13.574;2023-04-25T11:43:03;100015.94;;;10.84;35.54
80335;BME280;69653;52.674;13.574;2023-04-25T11:45:28;100006.38;;;11.04;35.44
80335;BME280;69653;52.674;13.574;2023-04-25T11:47:55;100011.25;;;11.33;35.49
80335;BME280;69653;52.674;13.574;2023-04-25T11:50:21;100011.31;;;11.58;35.27
80335;BME280;69653;52.674;13.574;2023-04-25T11:52:47;100011.53;;;11.96;34.56
80335;BME280;69653;52.674;13.574;2023-04-25T11:55:14;100019.88;;;12.26;34.70
80335;BME280;69653;52.674;13.574;2023-04-25T11:57:41;100014.03;;;12.44;33.80
80335;BME280;69653;52.674;13.574;2023-04-25T12:02:35;100016.28;;;12.51;33.81
80335;BME280;69653;52.674;13.574;2023-04-25T12:05:01;100026.09;;;12.69;33.78
80335;BME280;69653;52.674;13.574;2023-04-25T12:07:29;100024.50;;;13.06;32.63
80335;BME280;69653;52.674;13.574;2023-04-25T12:09:55;100024.16;;;13.07;32.48
80335;BME280;69653;52.674;13.574;2023-04-25T12:12:20;100031.13;;;12.96;32.01
80335;BME280;69653;52.674;13.574;2023-04-25T12:14:47;100034.94;;;12.75;32.41
80335;BME280;69653;52.674;13.574;2023-04-25T12:17:13;100036.28;;;12.60;32.77
80335;BME280;69653;52.674;13.574;2023-04-25T12:19:39;100040.19;;;12.25;32.01
80335;BME280;69653;52.674;13.574;2023-04-25T12:22:19;100041.50;;;12.10;32.67
80335;BME280;69653;52.674;13.574;2023-04-25T12:24:45;100036.75;;;11.50;33.36
80335;BME280;69653;52.674;13.574;2023-04-25T12:27:14;100046.25;;;11.44;34.27
80335;BME280;69653;52.674;13.574;2023-04-25T12:29:50;100052.03;;;11.43;35.33
80335;BME280;69653;52.674;13.574;2023-04-25T12:32:16;100043.84;;;11.51;35.68
80335;BME280;69653;52.674;13.574;2023-04-25T12:34:42;100037.03;;;11.40;35.65
80335;BME280;69653;52.674;13.574;2023-04-25T12:37:07;100040.31;;;11.59;35.87
80335;BME280;69653;52.674;13.574;2023-04-25T12:39:32;100038.28;;;11.91;35.08
80335;BME280;69653;52.674;13.574;2023-04-25T12:41:57;100040.53;;;12.14;34.93
80335;BME280;69653;52.674;13.574;2023-04-25T12:44:24;100043.59;;;12.30;34.89
80335;BME280;69653;52.674;13.574;2023-04-25T12:46:49;100049.38;;;12.37;34.58
80335;BME280;69653;52.674;13.574;2023-04-25T12:49:15;100050.84;;;12.35;34.56
80335;BME280;69653;52.674;13.574;2023-04-25T12:51:40;100049.69;;;12.36;34.66
80335;BME280;69653;52.674;13.574;2023-04-25T12:54:07;100049.88;;;12.39;35.20
80335;BME280;69653;52.674;13.574;2023-04-25T12:56:33;100047.78;;;12.19;34.97
80335;BME280;69653;52.674;13.574;2023-04-25T12:58:59;100045.03;;;12.10;34.49
80335;BME280;69653;52.674;13.574;2023-04-25T13:01:25;100052.78;;;12.17;35.28
80335;BME280;69653;52.674;13.574;2023-04-25T13:03:51;100056.47;;;12.21;35.43